createdAt,value
2022-12-05T07:13:30.102Z,8.02
2022-12-05T07:15:58.431Z,8.15
2022-12-05T07:18:25.262Z,8.32
2022-12-05T07:21:15.408Z,8.30
2022-12-05T07:26:15.314Z,6.22
2022-12-05T07:28:41.964Z,6.60
2022-12-05T07:31:10.986Z,6.97
2022-12-05T07:33:38.272Z,6.18
2022-12-05T07:36:08.117Z,6.55
2022-12-05T07:38:35.170Z,5.95
2022-12-05T07:41:11.618Z,5.70
2022-12-05T07:43:40.178Z,5.30
2022-12-05T07:46:08.706Z,5.55
2022-12-05T07:48:35.368Z,5.32
2022-12-05T07:51:04.129Z,4.45
2022-12-05T07:53:32.181Z,5.00
2022-12-05T07:56:00.431Z,6.40
2022-12-05T07:58:29.335Z,6.63
2022-12-05T08:00:56.803Z,5.63
2022-12-05T08:03:23.567Z,6.85
2022-12-05T08:05:50.578Z,6.30
2022-12-05T08:08:17.300Z,7.25
2022-12-05T08:10:44.016Z,7.30
2022-12-05T08:13:10.697Z,7.85
2022-12-05T08:15:37.316Z,8.55
2022-12-05T08:18:04.158Z,9.35
2022-12-05T08:20:30.898Z,8.07
2022-12-05T08:22:58.200Z,7.75
2022-12-05T08:25:25.308Z,8.95
2022-12-05T08:27:51.947Z,8.90
2022-12-05T08:30:18.698Z,7.75
2022-12-05T08:32:45.398Z,6.60
2022-12-05T08:35:12.051Z,6.85
2022-12-05T08:37:38.698Z,7.22
2022-12-05T08:40:06.067Z,7.28
2022-12-05T08:42:32.786Z,7.43
2022-12-05T08:44:59.664Z,7.57
2022-12-05T08:47:27.219Z,8.15
2022-12-05T08:49:53.891Z,9.18
2022-12-05T08:52:21.843Z,8.48
2022-12-05T08:54:48.552Z,8.68
2022-12-05T08:57:15.174Z,10.02
2022-12-05T08:59:41.797Z,8.00
2022-12-05T09:02:10.043Z,9.45
2022-12-05T09:04:36.766Z,9.15
2022-12-05T09:07:03.703Z,9.80
2022-12-05T09:09:30.401Z,13.50
2022-12-05T09:11:57.816Z,9.52
2022-12-05T09:14:24.569Z,7.57
2022-12-05T09:16:51.267Z,6.57
2022-12-05T09:19:24.908Z,6.78
2022-12-05T09:21:51.829Z,6.53
2022-12-05T09:24:18.677Z,5.68
2022-12-05T09:26:45.683Z,5.32
2022-12-05T09:29:16.716Z,5.38
2022-12-05T09:31:45.067Z,5.38
2022-12-05T09:34:14.024Z,4.57
2022-12-05T09:36:40.937Z,4.50
2022-12-05T09:39:08.193Z,4.25
2022-12-05T09:42:05.943Z,3.95
2022-12-05T09:44:58.743Z,3.80
2022-12-05T09:47:35.514Z,4.00
2022-12-05T09:50:30.065Z,4.40
2022-12-05T09:52:59.450Z,3.80
2022-12-05T09:55:30.950Z,4.97
2022-12-05T09:58:00.648Z,3.35
2022-12-05T10:00:29.306Z,3.70
2022-12-05T10:03:37.674Z,3.05
2022-12-05T10:06:25.135Z,3.88
2022-12-05T10:09:22.258Z,4.47
2022-12-05T10:12:13.448Z,3.80
2022-12-05T10:14:52.319Z,3.95
2022-12-05T10:17:26.565Z,3.83
2022-12-05T10:19:58.032Z,4.10
2022-12-05T10:22:56.904Z,4.10
2022-12-05T10:25:27.431Z,3.25
2022-12-05T10:28:01.314Z,2.90
2022-12-05T10:30:32.123Z,2.78
2022-12-05T10:33:20.952Z,4.93
2022-12-05T10:35:53.679Z,6.10
2022-12-05T10:38:25.172Z,4.57
2022-12-05T10:40:55.376Z,4.10
2022-12-05T10:45:56.205Z,4.38
2022-12-05T10:48:23.760Z,4.07
2022-12-05T10:50:53.051Z,3.92
2022-12-05T10:53:24.794Z,3.67
2022-12-05T10:56:28.350Z,3.40
2022-12-05T10:58:38.874Z,3.65
2022-12-05T11:01:14.105Z,3.70
2022-12-05T11:03:43.482Z,3.85
2022-12-05T11:06:28.764Z,4.18
2022-12-05T11:09:19.386Z,3.30
2022-12-05T11:12:05.603Z,3.38
2022-12-05T11:14:34.357Z,3.60
2022-12-05T11:17:03.236Z,2.90
2022-12-05T11:19:38.513Z,3.65
2022-12-05T11:22:07.954Z,3.90
2022-12-05T11:24:37.404Z,3.85
2022-12-05T11:27:16.260Z,3.75
2022-12-05T11:29:53.115Z,3.85
2022-12-05T11:32:25.825Z,3.97
2022-12-05T11:35:16.745Z,4.18
2022-12-05T11:37:50.601Z,5.15
2022-12-05T11:40:29.430Z,4.45
2022-12-05T11:45:39.640Z,4.50
2022-12-05T11:48:48.708Z,4.93
2022-12-05T11:51:51.120Z,4.38
2022-12-05T11:55:04.616Z,3.30
2022-12-05T11:57:43.264Z,4.10
2022-12-05T12:00:19.577Z,3.95
2022-12-05T12:03:15.321Z,3.67
2022-12-05T12:05:54.910Z,4.85
2022-12-05T12:08:52.820Z,4.10
2022-12-05T12:11:29.633Z,3.70
2022-12-05T12:14:10.076Z,4.00
2022-12-05T12:16:36.785Z,4.40
2022-12-05T12:19:38.649Z,4.50
2022-12-05T12:22:42.792Z,4.43
2022-12-05T12:25:32.885Z,4.70
2022-12-05T12:28:14.532Z,5.13
2022-12-05T12:31:09.398Z,5.05
2022-12-05T12:34:20.831Z,4.57
2022-12-05T12:37:21.484Z,5.20
2022-12-05T12:40:42.592Z,6.60
2022-12-05T12:43:31.175Z,4.07
2022-12-05T12:46:25.013Z,4.78
2022-12-05T12:49:02.021Z,6.00
2022-12-05T12:51:31.831Z,3.92
2022-12-05T12:54:25.302Z,3.17
2022-12-05T12:57:23.493Z,3.97
2022-12-05T13:00:12.156Z,2.60
2022-12-05T13:02:51.419Z,2.47
2022-12-05T13:05:37.035Z,2.73
2022-12-05T13:08:22.320Z,3.00
2022-12-05T13:10:49.375Z,3.20
2022-12-05T13:13:34.108Z,2.92
2022-12-05T13:16:02.574Z,3.30
2022-12-05T13:18:29.271Z,3.50
2022-12-05T13:20:59.415Z,2.83
2022-12-05T13:23:30.855Z,3.55
2022-12-05T13:26:00.579Z,3.60
2022-12-05T13:28:34.694Z,3.08
2022-12-05T13:31:02.642Z,3.85
2022-12-05T13:33:43.246Z,3.83
2022-12-05T13:36:42.065Z,4.03
2022-12-05T13:39:33.161Z,3.50
2022-12-05T13:42:12.496Z,3.42
2022-12-05T13:44:45.474Z,3.07
2022-12-05T13:47:40.833Z,3.45
2022-12-05T13:50:10.429Z,3.90
2022-12-05T13:52:53.344Z,3.50
2022-12-05T13:55:33.951Z,2.97
2022-12-05T13:58:22.610Z,3.35
2022-12-05T14:00:52.549Z,3.08
2022-12-05T14:03:45.292Z,3.13
2022-12-05T14:06:34.737Z,2.90
2022-12-05T14:09:02.355Z,3.00
2022-12-05T14:11:29.247Z,3.17
2022-12-05T14:14:00.764Z,4.72
2022-12-05T14:16:30.947Z,4.50
2022-12-05T14:19:12.983Z,3.63
2022-12-05T14:21:51.629Z,4.07
2022-12-05T14:24:39.915Z,4.05
2022-12-05T14:27:27.078Z,4.03
2022-12-05T14:30:20.170Z,4.72
2022-12-05T14:32:47.469Z,4.35
2022-12-05T14:35:47.913Z,5.00
2022-12-05T14:38:33.975Z,3.75
2022-12-05T14:41:17.324Z,4.43
2022-12-05T14:43:44.399Z,4.95
2022-12-05T14:46:28.819Z,5.32
2022-12-05T14:48:56.112Z,5.60
2022-12-05T14:51:31.619Z,5.32
2022-12-05T14:54:07.347Z,5.03
2022-12-05T14:56:48.361Z,5.40
2022-12-05T14:59:28.912Z,6.25
2022-12-05T15:01:59.127Z,5.80
2022-12-05T15:07:21.172Z,3.42
2022-12-05T15:10:08.212Z,3.13
2022-12-05T15:12:42.468Z,5.15
2022-12-05T15:15:31.207Z,3.83
2022-12-05T15:18:14.930Z,3.60
2022-12-05T15:21:06.319Z,3.50
2022-12-05T15:23:44.281Z,3.42
2022-12-05T15:26:45.729Z,4.07
2022-12-05T15:29:14.790Z,4.00
2022-12-05T15:31:55.293Z,4.47
2022-12-05T15:34:32.087Z,4.05
2022-12-05T15:37:33.667Z,3.58
2022-12-05T15:40:09.452Z,4.03
2022-12-05T15:42:37.970Z,5.15
2022-12-05T15:45:13.781Z,4.65
2022-12-05T15:47:41.896Z,4.82
2022-12-05T15:50:37.331Z,4.28
2022-12-05T15:53:09.858Z,3.88
2022-12-05T15:55:41.165Z,3.63
2022-12-05T15:58:31.553Z,3.00
2022-12-05T16:01:03.650Z,3.50
2022-12-05T16:03:53.393Z,3.45
2022-12-05T16:06:31.988Z,3.92
2022-12-05T16:09:00.954Z,5.13
2022-12-05T16:11:27.724Z,3.85
2022-12-05T16:13:58.100Z,3.70
2022-12-05T16:16:29.715Z,3.42
2022-12-05T16:18:59.379Z,3.78
2022-12-05T16:21:39.261Z,3.28
2022-12-05T16:24:13.993Z,4.72
2022-12-05T16:26:41.267Z,4.53
2022-12-05T16:29:28.907Z,4.38
2022-12-05T16:32:02.291Z,3.78
2022-12-05T16:34:32.379Z,2.67
2022-12-05T16:36:59.525Z,4.07
2022-12-05T16:39:28.197Z,3.58
2022-12-05T16:41:55.169Z,3.05
2022-12-05T16:44:28.232Z,3.65
2022-12-05T16:46:56.414Z,4.82
2022-12-05T16:49:37.018Z,4.38
2022-12-05T16:52:08.559Z,7.18
2022-12-05T16:54:35.672Z,5.55
2022-12-05T16:57:02.859Z,8.40
2022-12-05T16:59:34.146Z,6.97
2022-12-05T17:02:02.139Z,4.72
2022-12-05T17:04:29.230Z,4.70
2022-12-05T17:06:56.089Z,4.50
2022-12-05T17:09:22.933Z,4.60
2022-12-05T17:11:52.912Z,4.50
2022-12-05T17:14:20.569Z,5.10
2022-12-05T17:16:47.374Z,4.22
2022-12-05T17:19:14.475Z,7.63
2022-12-05T17:21:42.579Z,4.97
2022-12-05T17:24:17.457Z,5.53
2022-12-05T17:26:45.113Z,5.00
2022-12-05T17:29:12.132Z,3.70
2022-12-05T17:31:39.156Z,4.82
2022-12-05T17:34:15.609Z,6.05
2022-12-05T17:36:42.916Z,3.65
2022-12-05T17:39:10.082Z,3.17
2022-12-05T17:41:37.112Z,4.78
2022-12-05T17:44:07.005Z,3.95
2022-12-05T17:46:33.786Z,4.47
2022-12-05T17:49:00.553Z,3.20
2022-12-05T17:51:27.401Z,4.45
2022-12-05T17:53:54.487Z,5.25
2022-12-05T17:56:21.638Z,6.50
2022-12-05T17:58:48.455Z,6.15
2022-12-05T18:01:17.897Z,6.15
2022-12-05T18:03:44.636Z,3.90
2022-12-05T18:06:11.591Z,4.70
2022-12-05T18:08:39.883Z,4.90
2022-12-05T18:11:07.103Z,4.82
2022-12-05T18:13:34.265Z,5.20
2022-12-05T18:16:01.846Z,4.97
2022-12-05T18:18:29.438Z,4.82
2022-12-05T18:21:09.417Z,3.72
2022-12-05T18:23:36.976Z,4.38
2022-12-05T18:26:04.999Z,4.63
2022-12-05T18:28:33.396Z,6.50
2022-12-05T18:31:15.185Z,5.28
2022-12-05T18:33:43.965Z,4.70
2022-12-05T18:36:15.432Z,4.35
2022-12-05T18:38:43.381Z,4.28
2022-12-05T18:41:10.607Z,4.72
2022-12-05T18:43:37.247Z,4.40
2022-12-05T18:46:04.824Z,4.15
2022-12-05T18:48:43.671Z,4.35
2022-12-05T18:51:21.737Z,5.45
2022-12-05T18:53:53.809Z,5.90
2022-12-05T18:56:24.896Z,5.20
2022-12-05T18:59:02.424Z,5.32
2022-12-05T19:01:30.766Z,5.90
2022-12-05T19:03:59.469Z,6.13
2022-12-05T19:06:29.787Z,5.78
2022-12-05T19:08:58.236Z,6.05
2022-12-05T19:11:28.792Z,5.32
2022-12-05T19:13:56.758Z,6.68
2022-12-05T19:16:24.443Z,7.90
2022-12-05T19:18:56.203Z,9.95
2022-12-05T19:21:24.440Z,5.65
2022-12-05T19:23:51.062Z,5.32
2022-12-05T19:26:17.898Z,6.55
2022-12-05T19:28:44.514Z,10.25
2022-12-05T19:31:13.459Z,13.75
2022-12-05T19:33:42.858Z,9.43
2022-12-05T19:36:14.966Z,12.30
2022-12-05T19:38:43.190Z,13.60
2022-12-05T19:41:12.143Z,15.43
2022-12-05T19:43:39.121Z,14.48
2022-12-05T19:46:08.551Z,12.68
2022-12-05T19:48:35.773Z,12.05
2022-12-05T19:51:03.153Z,13.85
2022-12-05T19:53:31.911Z,16.23
2022-12-05T19:56:22.907Z,14.48
2022-12-05T19:58:51.218Z,12.57
2022-12-05T20:01:20.438Z,12.02
2022-12-05T20:03:49.818Z,11.47
2022-12-05T20:06:17.568Z,10.50
2022-12-05T20:08:44.569Z,8.68
2022-12-05T20:11:17.132Z,7.53
2022-12-05T20:13:46.859Z,6.95
2022-12-05T20:16:16.538Z,6.18
2022-12-05T20:18:43.217Z,6.13
2022-12-05T20:21:15.370Z,5.60
2022-12-05T20:23:42.702Z,5.70
2022-12-05T20:26:11.822Z,5.40
2022-12-05T20:28:39.146Z,5.20
2022-12-05T20:31:19.011Z,5.38
2022-12-05T20:33:46.141Z,5.20
2022-12-05T20:36:15.418Z,5.60
2022-12-05T20:38:42.497Z,6.77
2022-12-05T20:41:14.306Z,6.13
2022-12-05T20:43:41.461Z,5.07
2022-12-05T20:46:16.910Z,4.72
2022-12-05T20:48:44.549Z,4.60
2022-12-05T20:51:13.776Z,4.93
2022-12-05T20:53:42.451Z,4.40
2022-12-05T20:56:10.531Z,5.20
2022-12-05T20:58:37.672Z,4.60
2022-12-05T21:01:07.928Z,5.05
2022-12-05T21:03:35.555Z,5.80
2022-12-05T21:06:10.612Z,5.63
2022-12-05T21:08:37.867Z,4.88
2022-12-05T21:11:05.145Z,5.43
2022-12-05T21:13:32.031Z,5.22
2022-12-05T21:16:03.157Z,5.95
2022-12-05T21:18:30.571Z,4.32
2022-12-05T21:20:58.649Z,4.75
2022-12-05T21:23:26.103Z,4.35
2022-12-05T21:25:53.366Z,4.50
2022-12-05T21:28:20.592Z,4.40
2022-12-05T21:30:47.304Z,3.67
2022-12-05T21:33:14.235Z,4.88
2022-12-05T21:35:40.886Z,4.75
2022-12-05T21:38:07.543Z,4.97
2022-12-05T21:40:34.164Z,6.93
2022-12-05T21:43:00.771Z,7.95
2022-12-05T21:45:27.382Z,9.10
2022-12-05T21:47:54.013Z,7.32
2022-12-05T21:50:20.698Z,7.75
2022-12-05T21:52:47.298Z,5.38
2022-12-05T21:55:14.072Z,5.22
2022-12-05T21:57:40.720Z,6.53
2022-12-05T22:00:09.564Z,6.47
2022-12-05T22:02:36.276Z,6.10
2022-12-05T22:05:03.034Z,5.80
2022-12-05T22:07:29.637Z,4.50
